sensor_id;sensor_type;location;lat;lon;timestamp;P1;durP1;ratioP1;P2;durP2;ratioP2
14116;SDS011;7137;51.436;6.544;2022-11-15T00:02:10;12.07;;;9.37;;
14116;SDS011;7137;51.436;6.544;2022-11-15T00:05:16;14.53;;;10.00;;
14116;SDS011;7137;51.436;6.544;2022-11-15T00:08:19;13.20;;;9.53;;
14116;SDS011;7137;51.436;6.544;2022-11-15T00:11:22;11.83;;;9.70;;
14116;SDS011;7137;51.436;6.544;2022-11-15T00:14:25;10.77;;;9.33;;
14116;SDS011;7137;51.436;6.544;2022-11-15T00:17:30;12.03;;;9.70;;
14116;SDS011;7137;51.436;6.544;2022-11-15T00:20:35;11.33;;;8.80;;
14116;SDS011;7137;51.436;6.544;2022-11-15T00:23:37;11.03;;;7.90;;
14116;SDS011;7137;51.436;6.544;2022-11-15T00:26:40;10.27;;;8.47;;
14116;SDS011;7137;51.436;6.544;2022-11-15T00:29:43;13.03;;;9.13;;
14116;SDS011;7137;51.436;6.544;2022-11-15T00:32:45;10.97;;;8.80;;
14116;SDS011;7137;51.436;6.544;2022-11-15T00:35:51;11.13;;;9.17;;
14116;SDS011;7137;51.436;6.544;2022-11-15T00:38:54;10.43;;;8.87;;
14116;SDS011;7137;51.436;6.544;2022-11-15T00:41:56;10.97;;;8.53;;
14116;SDS011;7137;51.436;6.544;2022-11-15T00:44:59;11.43;;;8.80;;
14116;SDS011;7137;51.436;6.544;2022-11-15T00:48:01;8.87;;;7.67;;
14116;SDS011;7137;51.436;6.544;2022-11-15T00:51:04;9.30;;;8.30;;
14116;SDS011;7137;51.436;6.544;2022-11-15T00:54:06;10.60;;;8.10;;
14116;SDS011;7137;51.436;6.544;2022-11-15T00:57:08;9.33;;;8.33;;
14116;SDS011;7137;51.436;6.544;2022-11-15T01:00:10;9.40;;;8.10;;
14116;SDS011;7137;51.436;6.544;2022-11-15T01:03:14;10.10;;;8.27;;
14116;SDS011;7137;51.436;6.544;2022-11-15T01:06:17;11.17;;;8.40;;
14116;SDS011;7137;51.436;6.544;2022-11-15T01:09:19;12.10;;;8.70;;
14116;SDS011;7137;51.436;6.544;2022-11-15T01:12:20;10.67;;;8.70;;
14116;SDS011;7137;51.436;6.544;2022-11-15T01:15:22;9.47;;;8.27;;
14116;SDS011;7137;51.436;6.544;2022-11-15T01:18:24;11.33;;;8.63;;
14116;SDS011;7137;51.436;6.544;2022-11-15T01:21:29;9.47;;;8.07;;
14116;SDS011;7137;51.436;6.544;2022-11-15T01:24:31;10.00;;;8.40;;
14116;SDS011;7137;51.436;6.544;2022-11-15T01:27:33;10.70;;;8.83;;
14116;SDS011;7137;51.436;6.544;2022-11-15T01:30:35;10.60;;;8.47;;
14116;SDS011;7137;51.436;6.544;2022-11-15T01:33:37;10.07;;;8.23;;
14116;SDS011;7137;51.436;6.544;2022-11-15T01:36:47;10.33;;;8.23;;
14116;SDS011;7137;51.436;6.544;2022-11-15T01:39:49;10.97;;;8.40;;
14116;SDS011;7137;51.436;6.544;2022-11-15T01:42:51;10.07;;;8.17;;
14116;SDS011;7137;51.436;6.544;2022-11-15T01:45:52;10.87;;;8.10;;
14116;SDS011;7137;51.436;6.544;2022-11-15T01:48:58;9.57;;;8.03;;
14116;SDS011;7137;51.436;6.544;2022-11-15T01:52:04;9.27;;;7.77;;
14116;SDS011;7137;51.436;6.544;2022-11-15T01:55:10;11.27;;;8.17;;
14116;SDS011;7137;51.436;6.544;2022-11-15T01:58:15;11.57;;;8.00;;
14116;SDS011;7137;51.436;6.544;2022-11-15T02:01:17;9.83;;;8.40;;
14116;SDS011;7137;51.436;6.544;2022-11-15T02:04:20;10.73;;;8.17;;
14116;SDS011;7137;51.436;6.544;2022-11-15T02:07:26;9.60;;;8.07;;
14116;SDS011;7137;51.436;6.544;2022-11-15T02:10:30;11.00;;;8.53;;
14116;SDS011;7137;51.436;6.544;2022-11-15T02:13:32;10.23;;;7.93;;
14116;SDS011;7137;51.436;6.544;2022-11-15T02:16:35;9.93;;;8.00;;
14116;SDS011;7137;51.436;6.544;2022-11-15T02:19:57;9.83;;;7.60;;
14116;SDS011;7137;51.436;6.544;2022-11-15T02:27:42;10.33;;;8.53;;
14116;SDS011;7137;51.436;6.544;2022-11-15T02:31:02;9.83;;;7.40;;
14116;SDS011;7137;51.436;6.544;2022-11-15T02:34:15;9.50;;;7.20;;
14116;SDS011;7137;51.436;6.544;2022-11-15T02:37:25;9.77;;;7.37;;
14116;SDS011;7137;51.436;6.544;2022-11-15T02:40:38;9.00;;;7.57;;
14116;SDS011;7137;51.436;6.544;2022-11-15T02:43:47;8.40;;;7.30;;
14116;SDS011;7137;51.436;6.544;2022-11-15T02:47:02;9.27;;;7.10;;
14116;SDS011;7137;51.436;6.544;2022-11-15T02:50:18;9.97;;;7.37;;
14116;SDS011;7137;51.436;6.544;2022-11-15T02:53:23;8.73;;;6.73;;
14116;SDS011;7137;51.436;6.544;2022-11-15T02:56:26;10.93;;;7.40;;
14116;SDS011;7137;51.436;6.544;2022-11-15T03:06:38;9.93;;;7.37;;
14116;SDS011;7137;51.436;6.544;2022-11-15T03:09:47;9.80;;;7.27;;
14116;SDS011;7137;51.436;6.544;2022-11-15T03:12:54;8.90;;;6.93;;
14116;SDS011;7137;51.436;6.544;2022-11-15T03:16:01;10.33;;;6.73;;
14116;SDS011;7137;51.436;6.544;2022-11-15T03:19:09;9.20;;;6.60;;
14116;SDS011;7137;51.436;6.544;2022-11-15T03:22:15;9.60;;;6.47;;
14116;SDS011;7137;51.436;6.544;2022-11-15T03:25:20;8.37;;;6.00;;
14116;SDS011;7137;51.436;6.544;2022-11-15T03:32:23;10.13;;;6.60;;
14116;SDS011;7137;51.436;6.544;2022-11-15T03:35:30;8.53;;;6.63;;
14116;SDS011;7137;51.436;6.544;2022-11-15T03:38:35;9.13;;;6.90;;
14116;SDS011;7137;51.436;6.544;2022-11-15T03:41:39;9.23;;;7.20;;
14116;SDS011;7137;51.436;6.544;2022-11-15T03:44:46;9.33;;;7.23;;
14116;SDS011;7137;51.436;6.544;2022-11-15T03:47:53;9.50;;;7.30;;
14116;SDS011;7137;51.436;6.544;2022-11-15T03:51:01;9.73;;;7.13;;
14116;SDS011;7137;51.436;6.544;2022-11-15T03:54:05;9.37;;;7.40;;
14116;SDS011;7137;51.436;6.544;2022-11-15T03:57:09;10.17;;;7.40;;
14116;SDS011;7137;51.436;6.544;2022-11-15T04:00:11;10.60;;;7.80;;
14116;SDS011;7137;51.436;6.544;2022-11-15T04:03:13;8.60;;;7.10;;
14116;SDS011;7137;51.436;6.544;2022-11-15T04:06:16;9.23;;;7.20;;
14116;SDS011;7137;51.436;6.544;2022-11-15T04:09:18;9.77;;;7.50;;
14116;SDS011;7137;51.436;6.544;2022-11-15T04:12:20;9.17;;;7.73;;
14116;SDS011;7137;51.436;6.544;2022-11-15T04:15:30;9.73;;;7.40;;
14116;SDS011;7137;51.436;6.544;2022-11-15T04:18:32;8.97;;;7.10;;
14116;SDS011;7137;51.436;6.544;2022-11-15T04:21:35;9.00;;;6.57;;
14116;SDS011;7137;51.436;6.544;2022-11-15T04:24:54;8.57;;;7.13;;
14116;SDS011;7137;51.436;6.544;2022-11-15T04:27:55;9.53;;;6.90;;
14116;SDS011;7137;51.436;6.544;2022-11-15T04:30:57;8.63;;;7.07;;
14116;SDS011;7137;51.436;6.544;2022-11-15T04:33:58;10.63;;;7.80;;
14116;SDS011;7137;51.436;6.544;2022-11-15T04:37:01;9.93;;;7.40;;
14116;SDS011;7137;51.436;6.544;2022-11-15T04:40:16;7.83;;;6.77;;
14116;SDS011;7137;51.436;6.544;2022-11-15T04:43:17;8.77;;;7.23;;
14116;SDS011;7137;51.436;6.544;2022-11-15T04:46:19;10.57;;;7.77;;
14116;SDS011;7137;51.436;6.544;2022-11-15T04:49:20;9.03;;;7.70;;
14116;SDS011;7137;51.436;6.544;2022-11-15T04:52:23;9.30;;;7.30;;
14116;SDS011;7137;51.436;6.544;2022-11-15T04:55:25;8.43;;;6.60;;
14116;SDS011;7137;51.436;6.544;2022-11-15T04:58:26;9.30;;;8.03;;
14116;SDS011;7137;51.436;6.544;2022-11-15T05:01:28;9.53;;;7.17;;
14116;SDS011;7137;51.436;6.544;2022-11-15T05:04:30;9.70;;;7.07;;
14116;SDS011;7137;51.436;6.544;2022-11-15T05:07:32;8.20;;;7.10;;
14116;SDS011;7137;51.436;6.544;2022-11-15T05:10:33;8.87;;;6.90;;
14116;SDS011;7137;51.436;6.544;2022-11-15T05:13:34;8.30;;;7.03;;
14116;SDS011;7137;51.436;6.544;2022-11-15T05:16:36;9.37;;;7.47;;
14116;SDS011;7137;51.436;6.544;2022-11-15T05:19:38;8.37;;;7.17;;
14116;SDS011;7137;51.436;6.544;2022-11-15T05:22:41;8.53;;;7.17;;
14116;SDS011;7137;51.436;6.544;2022-11-15T05:25:58;11.10;;;7.57;;
14116;SDS011;7137;51.436;6.544;2022-11-15T05:29:00;9.10;;;7.63;;
14116;SDS011;7137;51.436;6.544;2022-11-15T05:32:02;8.20;;;6.97;;
14116;SDS011;7137;51.436;6.544;2022-11-15T05:35:06;8.70;;;7.07;;
14116;SDS011;7137;51.436;6.544;2022-11-15T05:38:14;9.43;;;7.50;;
14116;SDS011;7137;51.436;6.544;2022-11-15T05:41:16;9.20;;;7.20;;
14116;SDS011;7137;51.436;6.544;2022-11-15T05:44:21;8.27;;;7.10;;
14116;SDS011;7137;51.436;6.544;2022-11-15T05:47:25;10.23;;;7.57;;
14116;SDS011;7137;51.436;6.544;2022-11-15T05:50:30;9.83;;;7.30;;
14116;SDS011;7137;51.436;6.544;2022-11-15T05:53:33;7.60;;;6.73;;
14116;SDS011;7137;51.436;6.544;2022-11-15T05:56:37;8.20;;;7.00;;
14116;SDS011;7137;51.436;6.544;2022-11-15T05:59:40;8.30;;;7.00;;
14116;SDS011;7137;51.436;6.544;2022-11-15T06:02:43;7.93;;;6.40;;
14116;SDS011;7137;51.436;6.544;2022-11-15T06:05:45;8.03;;;6.40;;
14116;SDS011;7137;51.436;6.544;2022-11-15T06:08:47;9.17;;;6.90;;
14116;SDS011;7137;51.436;6.544;2022-11-15T06:11:49;8.67;;;6.13;;
14116;SDS011;7137;51.436;6.544;2022-11-15T06:14:51;9.67;;;7.20;;
14116;SDS011;7137;51.436;6.544;2022-11-15T06:17:55;9.70;;;6.93;;
14116;SDS011;7137;51.436;6.544;2022-11-15T06:20:58;8.70;;;6.43;;
14116;SDS011;7137;51.436;6.544;2022-11-15T06:24:02;7.90;;;6.30;;
14116;SDS011;7137;51.436;6.544;2022-11-15T06:27:04;7.80;;;6.00;;
14116;SDS011;7137;51.436;6.544;2022-11-15T06:30:06;7.77;;;6.20;;
14116;SDS011;7137;51.436;6.544;2022-11-15T06:33:09;7.77;;;6.23;;
14116;SDS011;7137;51.436;6.544;2022-11-15T06:36:12;8.83;;;6.60;;
14116;SDS011;7137;51.436;6.544;2022-11-15T06:39:18;9.67;;;6.37;;
14116;SDS011;7137;51.436;6.544;2022-11-15T06:42:19;7.40;;;6.23;;
14116;SDS011;7137;51.436;6.544;2022-11-15T06:45:23;7.83;;;6.17;;
14116;SDS011;7137;51.436;6.544;2022-11-15T06:48:24;8.83;;;6.00;;
14116;SDS011;7137;51.436;6.544;2022-11-15T06:51:27;7.30;;;5.80;;
14116;SDS011;7137;51.436;6.544;2022-11-15T06:54:45;6.87;;;5.97;;
14116;SDS011;7137;51.436;6.544;2022-11-15T06:57:49;7.43;;;5.80;;
14116;SDS011;7137;51.436;6.544;2022-11-15T07:00:57;8.00;;;5.60;;
14116;SDS011;7137;51.436;6.544;2022-11-15T07:04:05;7.93;;;5.53;;
14116;SDS011;7137;51.436;6.544;2022-11-15T07:07:07;7.33;;;5.10;;
14116;SDS011;7137;51.436;6.544;2022-11-15T07:10:11;7.03;;;5.30;;
14116;SDS011;7137;51.436;6.544;2022-11-15T07:13:23;6.30;;;5.07;;
14116;SDS011;7137;51.436;6.544;2022-11-15T07:16:27;7.47;;;5.13;;
14116;SDS011;7137;51.436;6.544;2022-11-15T07:19:35;7.67;;;5.70;;
14116;SDS011;7137;51.436;6.544;2022-11-15T07:22:41;6.10;;;4.87;;
14116;SDS011;7137;51.436;6.544;2022-11-15T07:25:47;6.83;;;5.00;;
14116;SDS011;7137;51.436;6.544;2022-11-15T07:28:50;6.47;;;4.10;;
14116;SDS011;7137;51.436;6.544;2022-11-15T07:31:52;5.37;;;3.60;;
14116;SDS011;7137;51.436;6.544;2022-11-15T07:34:57;5.20;;;3.40;;
14116;SDS011;7137;51.436;6.544;2022-11-15T07:37:59;6.70;;;5.40;;
14116;SDS011;7137;51.436;6.544;2022-11-15T07:41:04;6.37;;;4.20;;
14116;SDS011;7137;51.436;6.544;2022-11-15T07:44:06;4.67;;;3.30;;
14116;SDS011;7137;51.436;6.544;2022-11-15T07:47:08;4.37;;;2.87;;
14116;SDS011;7137;51.436;6.544;2022-11-15T07:50:09;3.60;;;2.43;;
14116;SDS011;7137;51.436;6.544;2022-11-15T07:53:11;4.07;;;2.23;;
14116;SDS011;7137;51.436;6.544;2022-11-15T07:56:14;3.63;;;2.30;;
14116;SDS011;7137;51.436;6.544;2022-11-15T07:59:15;4.23;;;2.27;;
14116;SDS011;7137;51.436;6.544;2022-11-15T08:02:17;3.03;;;1.70;;
14116;SDS011;7137;51.436;6.544;2022-11-15T08:05:19;3.07;;;1.87;;
14116;SDS011;7137;51.436;6.544;2022-11-15T08:08:20;2.30;;;1.27;;
14116;SDS011;7137;51.436;6.544;2022-11-15T08:11:23;4.33;;;1.90;;
14116;SDS011;7137;51.436;6.544;2022-11-15T08:14:25;5.33;;;1.87;;
14116;SDS011;7137;51.436;6.544;2022-11-15T08:17:26;4.57;;;1.80;;
14116;SDS011;7137;51.436;6.544;2022-11-15T08:20:32;3.97;;;1.60;;
14116;SDS011;7137;51.436;6.544;2022-11-15T08:23:34;2.17;;;1.10;;
14116;SDS011;7137;51.436;6.544;2022-11-15T08:26:37;4.87;;;1.20;;
14116;SDS011;7137;51.436;6.544;2022-11-15T08:29:39;4.47;;;1.37;;
14116;SDS011;7137;51.436;6.544;2022-11-15T08:32:41;2.83;;;1.20;;
14116;SDS011;7137;51.436;6.544;2022-11-15T08:35:42;3.17;;;1.47;;
14116;SDS011;7137;51.436;6.544;2022-11-15T08:38:45;2.30;;;1.37;;
14116;SDS011;7137;51.436;6.544;2022-11-15T08:41:48;3.17;;;1.60;;
14116;SDS011;7137;51.436;6.544;2022-11-15T08:44:49;3.53;;;1.50;;
14116;SDS011;7137;51.436;6.544;2022-11-15T08:47:51;3.57;;;1.63;;
14116;SDS011;7137;51.436;6.544;2022-11-15T08:50:53;3.50;;;1.57;;
14116;SDS011;7137;51.436;6.544;2022-11-15T08:53:55;3.70;;;1.50;;
14116;SDS011;7137;51.436;6.544;2022-11-15T08:56:58;4.83;;;1.60;;
14116;SDS011;7137;51.436;6.544;2022-11-15T08:59:59;2.87;;;1.30;;
14116;SDS011;7137;51.436;6.544;2022-11-15T09:03:03;3.67;;;1.47;;
14116;SDS011;7137;51.436;6.544;2022-11-15T09:06:05;3.20;;;1.40;;
14116;SDS011;7137;51.436;6.544;2022-11-15T09:09:06;4.90;;;1.30;;
14116;SDS011;7137;51.436;6.544;2022-11-15T09:12:09;2.70;;;1.20;;
14116;SDS011;7137;51.436;6.544;2022-11-15T09:15:11;3.40;;;1.40;;
14116;SDS011;7137;51.436;6.544;2022-11-15T09:18:12;2.17;;;1.10;;
14116;SDS011;7137;51.436;6.544;2022-11-15T09:21:14;2.73;;;1.10;;
14116;SDS011;7137;51.436;6.544;2022-11-15T09:24:16;3.00;;;1.27;;
14116;SDS011;7137;51.436;6.544;2022-11-15T09:27:19;2.70;;;1.40;;
14116;SDS011;7137;51.436;6.544;2022-11-15T09:30:21;2.60;;;1.20;;
14116;SDS011;7137;51.436;6.544;2022-11-15T09:33:22;2.23;;;1.23;;
14116;SDS011;7137;51.436;6.544;2022-11-15T09:36:24;2.70;;;1.17;;
14116;SDS011;7137;51.436;6.544;2022-11-15T09:39:25;3.23;;;1.30;;
14116;SDS011;7137;51.436;6.544;2022-11-15T09:42:36;2.67;;;1.27;;
14116;SDS011;7137;51.436;6.544;2022-11-15T09:45:50;2.27;;;1.30;;
14116;SDS011;7137;51.436;6.544;2022-11-15T09:48:57;2.60;;;1.13;;
14116;SDS011;7137;51.436;6.544;2022-11-15T09:52:00;3.27;;;1.20;;
14116;SDS011;7137;51.436;6.544;2022-11-15T09:55:03;3.90;;;1.23;;
14116;SDS011;7137;51.436;6.544;2022-11-15T09:58:15;2.97;;;1.20;;
14116;SDS011;7137;51.436;6.544;2022-11-15T10:01:26;2.83;;;1.10;;
14116;SDS011;7137;51.436;6.544;2022-11-15T10:04:37;2.10;;;1.03;;
14116;SDS011;7137;51.436;6.544;2022-11-15T10:07:42;3.37;;;1.40;;
14116;SDS011;7137;51.436;6.544;2022-11-15T10:10:48;3.43;;;1.40;;
14116;SDS011;7137;51.436;6.544;2022-11-15T10:13:55;1.80;;;1.07;;
14116;SDS011;7137;51.436;6.544;2022-11-15T10:17:12;2.73;;;1.50;;
14116;SDS011;7137;51.436;6.544;2022-11-15T10:20:23;3.07;;;1.40;;
14116;SDS011;7137;51.436;6.544;2022-11-15T10:23:26;3.63;;;1.50;;
14116;SDS011;7137;51.436;6.544;2022-11-15T10:26:29;2.27;;;1.30;;
14116;SDS011;7137;51.436;6.544;2022-11-15T10:29:31;3.10;;;1.47;;
14116;SDS011;7137;51.436;6.544;2022-11-15T10:32:33;4.13;;;1.53;;
14116;SDS011;7137;51.436;6.544;2022-11-15T10:35:36;2.90;;;1.30;;
14116;SDS011;7137;51.436;6.544;2022-11-15T10:38:48;3.53;;;1.60;;
14116;SDS011;7137;51.436;6.544;2022-11-15T10:41:54;4.67;;;1.50;;
14116;SDS011;7137;51.436;6.544;2022-11-15T10:44:58;3.43;;;1.40;;
14116;SDS011;7137;51.436;6.544;2022-11-15T10:48:18;3.30;;;1.30;;
14116;SDS011;7137;51.436;6.544;2022-11-15T10:51:25;2.33;;;1.10;;
14116;SDS011;7137;51.436;6.544;2022-11-15T10:54:30;3.53;;;1.50;;
14116;SDS011;7137;51.436;6.544;2022-11-15T10:57:36;3.33;;;1.47;;
14116;SDS011;7137;51.436;6.544;2022-11-15T11:00:40;4.37;;;1.60;;
14116;SDS011;7137;51.436;6.544;2022-11-15T11:03:43;3.60;;;1.50;;
14116;SDS011;7137;51.436;6.544;2022-11-15T11:06:46;4.60;;;1.90;;
14116;SDS011;7137;51.436;6.544;2022-11-15T11:09:49;4.00;;;1.50;;
14116;SDS011;7137;51.436;6.544;2022-11-15T11:13:11;3.43;;;1.30;;
14116;SDS011;7137;51.436;6.544;2022-11-15T11:19:53;4.73;;;1.60;;
14116;SDS011;7137;51.436;6.544;2022-11-15T11:23:11;4.07;;;1.37;;
14116;SDS011;7137;51.436;6.544;2022-11-15T11:26:29;4.47;;;1.40;;
14116;SDS011;7137;51.436;6.544;2022-11-15T11:29:44;3.70;;;1.40;;
14116;SDS011;7137;51.436;6.544;2022-11-15T11:33:00;3.83;;;1.20;;
14116;SDS011;7137;51.436;6.544;2022-11-15T11:36:13;3.17;;;1.37;;
14116;SDS011;7137;51.436;6.544;2022-11-15T11:39:24;3.83;;;1.30;;
14116;SDS011;7137;51.436;6.544;2022-11-15T11:42:34;3.47;;;1.23;;
14116;SDS011;7137;51.436;6.544;2022-11-15T11:45:53;3.47;;;1.50;;
14116;SDS011;7137;51.436;6.544;2022-11-15T11:49:10;4.63;;;1.50;;
14116;SDS011;7137;51.436;6.544;2022-11-15T11:52:16;5.03;;;1.30;;
14116;SDS011;7137;51.436;6.544;2022-11-15T11:55:23;3.47;;;1.20;;
14116;SDS011;7137;51.436;6.544;2022-11-15T11:58:30;3.47;;;1.10;;
14116;SDS011;7137;51.436;6.544;2022-11-15T12:01:37;3.47;;;1.23;;
14116;SDS011;7137;51.436;6.544;2022-11-15T12:04:45;3.00;;;1.17;;
14116;SDS011;7137;51.436;6.544;2022-11-15T12:07:51;3.17;;;1.10;;
14116;SDS011;7137;51.436;6.544;2022-11-15T12:11:01;3.30;;;1.00;;
14116;SDS011;7137;51.436;6.544;2022-11-15T12:14:13;3.47;;;1.20;;
14116;SDS011;7137;51.436;6.544;2022-11-15T12:17:24;2.17;;;0.73;;
14116;SDS011;7137;51.436;6.544;2022-11-15T12:20:33;4.40;;;1.10;;
14116;SDS011;7137;51.436;6.544;2022-11-15T12:23:42;3.27;;;0.97;;
14116;SDS011;7137;51.436;6.544;2022-11-15T12:26:51;3.97;;;0.93;;
14116;SDS011;7137;51.436;6.544;2022-11-15T12:29:57;3.73;;;1.07;;
14116;SDS011;7137;51.436;6.544;2022-11-15T12:33:01;3.37;;;1.10;;
14116;SDS011;7137;51.436;6.544;2022-11-15T12:36:08;2.80;;;0.90;;
14116;SDS011;7137;51.436;6.544;2022-11-15T12:39:11;2.37;;;1.00;;
14116;SDS011;7137;51.436;6.544;2022-11-15T12:45:38;4.00;;;1.10;;
14116;SDS011;7137;51.436;6.544;2022-11-15T12:48:51;1.80;;;0.73;;
14116;SDS011;7137;51.436;6.544;2022-11-15T12:52:05;2.73;;;0.90;;
14116;SDS011;7137;51.436;6.544;2022-11-15T12:58:39;3.97;;;1.10;;
14116;SDS011;7137;51.436;6.544;2022-11-15T13:01:57;3.10;;;1.10;;
14116;SDS011;7137;51.436;6.544;2022-11-15T13:05:25;3.53;;;1.10;;
14116;SDS011;7137;51.436;6.544;2022-11-15T13:12:57;4.33;;;1.07;;
14116;SDS011;7137;51.436;6.544;2022-11-15T13:16:00;2.43;;;0.90;;
14116;SDS011;7137;51.436;6.544;2022-11-15T13:19:02;3.53;;;0.93;;
14116;SDS011;7137;51.436;6.544;2022-11-15T13:22:06;5.77;;;1.10;;
14116;SDS011;7137;51.436;6.544;2022-11-15T13:29:16;4.17;;;1.07;;
14116;SDS011;7137;51.436;6.544;2022-11-15T13:32:20;3.83;;;1.30;;
14116;SDS011;7137;51.436;6.544;2022-11-15T13:35:25;2.53;;;1.07;;
14116;SDS011;7137;51.436;6.544;2022-11-15T13:38:29;4.47;;;1.30;;
14116;SDS011;7137;51.436;6.544;2022-11-15T13:41:33;3.70;;;1.03;;
14116;SDS011;7137;51.436;6.544;2022-11-15T13:44:37;3.03;;;0.80;;
14116;SDS011;7137;51.436;6.544;2022-11-15T13:47:39;3.90;;;1.10;;
14116;SDS011;7137;51.436;6.544;2022-11-15T13:50:40;3.13;;;0.90;;
14116;SDS011;7137;51.436;6.544;2022-11-15T13:53:43;1.87;;;0.60;;
14116;SDS011;7137;51.436;6.544;2022-11-15T13:57:05;4.20;;;1.13;;
14116;SDS011;7137;51.436;6.544;2022-11-15T14:00:29;3.27;;;1.00;;
14116;SDS011;7137;51.436;6.544;2022-11-15T14:03:41;2.87;;;1.00;;
14116;SDS011;7137;51.436;6.544;2022-11-15T14:06:50;1.93;;;0.87;;
14116;SDS011;7137;51.436;6.544;2022-11-15T14:09:57;3.97;;;1.07;;
14116;SDS011;7137;51.436;6.544;2022-11-15T14:12:59;3.10;;;1.00;;
14116;SDS011;7137;51.436;6.544;2022-11-15T14:16:17;3.93;;;1.10;;
14116;SDS011;7137;51.436;6.544;2022-11-15T14:19:34;4.10;;;1.00;;
14116;SDS011;7137;51.436;6.544;2022-11-15T14:22:39;3.87;;;1.27;;
14116;SDS011;7137;51.436;6.544;2022-11-15T14:25:53;5.70;;;1.10;;
14116;SDS011;7137;51.436;6.544;2022-11-15T14:28:56;3.50;;;1.20;;
14116;SDS011;7137;51.436;6.544;2022-11-15T14:32:10;3.63;;;1.10;;
14116;SDS011;7137;51.436;6.544;2022-11-15T14:35:15;3.10;;;1.20;;
14116;SDS011;7137;51.436;6.544;2022-11-15T14:38:19;3.87;;;1.20;;
14116;SDS011;7137;51.436;6.544;2022-11-15T14:41:22;5.00;;;1.30;;
14116;SDS011;7137;51.436;6.544;2022-11-15T14:44:24;3.50;;;1.10;;
14116;SDS011;7137;51.436;6.544;2022-11-15T14:47:28;2.50;;;1.00;;
14116;SDS011;7137;51.436;6.544;2022-11-15T14:50:29;3.20;;;1.17;;
14116;SDS011;7137;51.436;6.544;2022-11-15T14:53:33;5.10;;;1.30;;
14116;SDS011;7137;51.436;6.544;2022-11-15T14:56:36;3.07;;;1.10;;
14116;SDS011;7137;51.436;6.544;2022-11-15T14:59:40;4.50;;;1.17;;
14116;SDS011;7137;51.436;6.544;2022-11-15T15:02:43;3.13;;;1.20;;
14116;SDS011;7137;51.436;6.544;2022-11-15T15:05:47;4.13;;;1.10;;
14116;SDS011;7137;51.436;6.544;2022-11-15T15:08:48;2.83;;;1.30;;
14116;SDS011;7137;51.436;6.544;2022-11-15T15:11:51;4.17;;;1.50;;
14116;SDS011;7137;51.436;6.544;2022-11-15T15:14:54;3.50;;;1.40;;
14116;SDS011;7137;51.436;6.544;2022-11-15T15:17:58;5.60;;;1.70;;
14116;SDS011;7137;51.436;6.544;2022-11-15T15:20:59;5.30;;;1.43;;
14116;SDS011;7137;51.436;6.544;2022-11-15T15:24:07;3.53;;;1.50;;
14116;SDS011;7137;51.436;6.544;2022-11-15T15:27:14;4.30;;;1.80;;
14116;SDS011;7137;51.436;6.544;2022-11-15T15:30:17;6.00;;;2.00;;
14116;SDS011;7137;51.436;6.544;2022-11-15T15:33:20;4.80;;;1.80;;
14116;SDS011;7137;51.436;6.544;2022-11-15T15:36:22;3.43;;;1.83;;
14116;SDS011;7137;51.436;6.544;2022-11-15T15:39:27;4.20;;;1.80;;
14116;SDS011;7137;51.436;6.544;2022-11-15T15:42:28;4.53;;;2.10;;
14116;SDS011;7137;51.436;6.544;2022-11-15T15:45:30;4.80;;;2.07;;
14116;SDS011;7137;51.436;6.544;2022-11-15T15:48:34;4.30;;;2.03;;
14116;SDS011;7137;51.436;6.544;2022-11-15T15:51:37;4.37;;;2.03;;
14116;SDS011;7137;51.436;6.544;2022-11-15T15:54:46;4.23;;;2.10;;
14116;SDS011;7137;51.436;6.544;2022-11-15T15:57:51;3.50;;;1.90;;
14116;SDS011;7137;51.436;6.544;2022-11-15T16:00:53;4.73;;;2.20;;
14116;SDS011;7137;51.436;6.544;2022-11-15T16:03:56;4.40;;;2.20;;
14116;SDS011;7137;51.436;6.544;2022-11-15T16:06:57;4.67;;;2.10;;
14116;SDS011;7137;51.436;6.544;2022-11-15T16:10:01;5.47;;;2.40;;
14116;SDS011;7137;51.436;6.544;2022-11-15T16:13:04;7.23;;;2.40;;
14116;SDS011;7137;51.436;6.544;2022-11-15T16:16:07;4.50;;;2.23;;
14116;SDS011;7137;51.436;6.544;2022-11-15T16:19:15;5.93;;;2.40;;
14116;SDS011;7137;51.436;6.544;2022-11-15T16:22:16;5.73;;;2.60;;
14116;SDS011;7137;51.436;6.544;2022-11-15T16:25:18;6.03;;;2.50;;
14116;SDS011;7137;51.436;6.544;2022-11-15T16:28:20;4.17;;;1.97;;
14116;SDS011;7137;51.436;6.544;2022-11-15T16:31:22;3.57;;;1.73;;
14116;SDS011;7137;51.436;6.544;2022-11-15T16:34:25;3.77;;;1.97;;
14116;SDS011;7137;51.436;6.544;2022-11-15T16:37:27;3.77;;;1.73;;
14116;SDS011;7137;51.436;6.544;2022-11-15T16:40:29;4.23;;;2.10;;
14116;SDS011;7137;51.436;6.544;2022-11-15T16:43:32;4.80;;;1.97;;
14116;SDS011;7137;51.436;6.544;2022-11-15T16:46:33;3.83;;;1.83;;
14116;SDS011;7137;51.436;6.544;2022-11-15T16:49:36;5.30;;;2.00;;
14116;SDS011;7137;51.436;6.544;2022-11-15T16:52:38;5.40;;;2.23;;
14116;SDS011;7137;51.436;6.544;2022-11-15T16:55:39;4.53;;;1.70;;
14116;SDS011;7137;51.436;6.544;2022-11-15T16:58:41;3.97;;;1.80;;
14116;SDS011;7137;51.436;6.544;2022-11-15T17:01:43;4.27;;;1.80;;
14116;SDS011;7137;51.436;6.544;2022-11-15T17:04:50;3.33;;;1.60;;
14116;SDS011;7137;51.436;6.544;2022-11-15T17:07:52;3.80;;;1.77;;
14116;SDS011;7137;51.436;6.544;2022-11-15T17:10:54;4.80;;;1.90;;
14116;SDS011;7137;51.436;6.544;2022-11-15T17:13:56;5.40;;;2.20;;
14116;SDS011;7137;51.436;6.544;2022-11-15T17:16:58;4.30;;;1.77;;
14116;SDS011;7137;51.436;6.544;2022-11-15T17:20:02;4.60;;;1.87;;
14116;SDS011;7137;51.436;6.544;2022-11-15T17:23:10;4.70;;;1.87;;
14116;SDS011;7137;51.436;6.544;2022-11-15T17:26:14;3.77;;;1.80;;
14116;SDS011;7137;51.436;6.544;2022-11-15T17:29:16;3.47;;;1.93;;
14116;SDS011;7137;51.436;6.544;2022-11-15T17:32:18;4.50;;;2.00;;
14116;SDS011;7137;51.436;6.544;2022-11-15T17:35:21;4.90;;;1.90;;
14116;SDS011;7137;51.436;6.544;2022-11-15T17:38:23;4.47;;;1.80;;
14116;SDS011;7137;51.436;6.544;2022-11-15T17:41:25;3.50;;;1.70;;
14116;SDS011;7137;51.436;6.544;2022-11-15T17:44:26;3.60;;;1.77;;
14116;SDS011;7137;51.436;6.544;2022-11-15T17:47:28;3.40;;;1.70;;
14116;SDS011;7137;51.436;6.544;2022-11-15T17:50:31;4.40;;;2.20;;
14116;SDS011;7137;51.436;6.544;2022-11-15T17:53:33;5.10;;;2.00;;
14116;SDS011;7137;51.436;6.544;2022-11-15T17:56:37;3.13;;;1.80;;
14116;SDS011;7137;51.436;6.544;2022-11-15T17:59:40;4.13;;;1.90;;
14116;SDS011;7137;51.436;6.544;2022-11-15T18:02:42;3.67;;;2.00;;
14116;SDS011;7137;51.436;6.544;2022-11-15T18:05:47;4.13;;;1.80;;
14116;SDS011;7137;51.436;6.544;2022-11-15T18:08:49;4.23;;;1.60;;
14116;SDS011;7137;51.436;6.544;2022-11-15T18:11:52;3.37;;;1.60;;
14116;SDS011;7137;51.436;6.544;2022-11-15T18:14:54;3.47;;;1.87;;
14116;SDS011;7137;51.436;6.544;2022-11-15T18:17:57;3.63;;;1.93;;
14116;SDS011;7137;51.436;6.544;2022-11-15T18:21:00;3.77;;;2.07;;
14116;SDS011;7137;51.436;6.544;2022-11-15T18:24:05;3.87;;;1.80;;
14116;SDS011;7137;51.436;6.544;2022-11-15T18:27:07;3.33;;;1.80;;
14116;SDS011;7137;51.436;6.544;2022-11-15T18:30:09;4.60;;;1.97;;
14116;SDS011;7137;51.436;6.544;2022-11-15T18:33:11;4.33;;;1.80;;
14116;SDS011;7137;51.436;6.544;2022-11-15T18:36:15;4.00;;;2.20;;
14116;SDS011;7137;51.436;6.544;2022-11-15T18:39:18;4.13;;;1.90;;
14116;SDS011;7137;51.436;6.544;2022-11-15T18:42:20;3.73;;;1.97;;
14116;SDS011;7137;51.436;6.544;2022-11-15T18:45:30;4.37;;;2.10;;
14116;SDS011;7137;51.436;6.544;2022-11-15T18:48:34;4.60;;;2.07;;
14116;SDS011;7137;51.436;6.544;2022-11-15T18:51:40;4.73;;;2.00;;
14116;SDS011;7137;51.436;6.544;2022-11-15T18:54:43;3.90;;;2.10;;
14116;SDS011;7137;51.436;6.544;2022-11-15T18:57:45;4.07;;;2.37;;
14116;SDS011;7137;51.436;6.544;2022-11-15T19:00:46;5.23;;;2.40;;
14116;SDS011;7137;51.436;6.544;2022-11-15T19:03:49;4.13;;;2.40;;
14116;SDS011;7137;51.436;6.544;2022-11-15T19:06:52;3.67;;;2.30;;
14116;SDS011;7137;51.436;6.544;2022-11-15T19:09:54;4.20;;;2.30;;
14116;SDS011;7137;51.436;6.544;2022-11-15T19:12:56;3.80;;;2.00;;
14116;SDS011;7137;51.436;6.544;2022-11-15T19:15:57;6.03;;;3.50;;
14116;SDS011;7137;51.436;6.544;2022-11-15T19:19:00;4.03;;;2.33;;
14116;SDS011;7137;51.436;6.544;2022-11-15T19:22:05;5.37;;;2.47;;
14116;SDS011;7137;51.436;6.544;2022-11-15T19:25:07;4.23;;;2.43;;